Weather at Jasná Airfield

Public forecast

Using degrees Celsius for public forecast. Weather courtesy of forecast.io.

Closest aviation weather report (METAR) to Jasná Airfield

Closest report is Poprad-Tatry Airport, 28.9 nm (53.6 km) E.

2024/06/22 13:30 (retrieved 16 minutes ago)

LZTT 221330Z 21010KT 170V240 9999 FEW020 21/16 Q1012 NOSIG

Closest aviation forecast (TAF) to Jasná Airfield

Forecast is more than 6 hours old.

Closest forecast is Sliač Airport, 28.7 nm (53.1 km) SSW.

2024/06/22 06:39 (retrieved 7 hours ago)

TAF TAF LZSL 220430Z 2206/2218 VRB02KT CAVOK TEMPO 2208/2214 35006KT -SHRA FEW040TCU BKN045 PROB40 TEMPO 2210/2213 VRB10KT 5000 -TSRA FEW020 FEW025CB BKN035 BECMG 2216/2218 01006KT